Aviation Digital Data Service (ADDS)

Output produced by METARs form (1358 UTC 24 August 2019)
found at http://www.aviationweather.gov/metar/data/
 
Forecast for: LMML (LUQA/MALTA , MT)
Text: TAF LMML 241100Z 2412/2512 34006KT 9999 FEW020
Forecast period: 1200 UTC 24 August 2019 to 1200 UTC 25 August 2019
Forecast type: FROM: standard forecast or significant change
Winds: from the NNW (340 degrees) at 7 MPH (6 knots; 3.1 m/s)
Visibility: 6 or more miles 10+ km)
Ceiling: at least 12,000 feet AGL
Clouds: few clouds at 2000 feet AGL
Weather: no significant weather forecast for this period